sensor_id;sensor_type;location;lat;lon;timestamp;pressure;altitude;pressure_sealevel;temperature;humidity
13478;BME280;12598;62.382;17.344;2023-01-27T00:00:52;102587.03;;;16.87;22.33
13478;BME280;12598;62.382;17.344;2023-01-27T00:01:54;102585.22;;;16.88;22.55
13478;BME280;12598;62.382;17.344;2023-01-27T00:02:56;102582.19;;;16.80;22.46
13478;BME280;12598;62.382;17.344;2023-01-27T00:03:57;102592.38;;;16.87;22.54
13478;BME280;12598;62.382;17.344;2023-01-27T00:04:59;102587.97;;;16.86;22.18
13478;BME280;12598;62.382;17.344;2023-01-27T00:06:01;102582.94;;;16.82;22.34
13478;BME280;12598;62.382;17.344;2023-01-27T00:07:07;102590.66;;;16.86;22.79
13478;BME280;12598;62.382;17.344;2023-01-27T00:08:09;102580.34;;;16.80;22.16
13478;BME280;12598;62.382;17.344;2023-01-27T00:09:10;102588.94;;;16.85;22.62
13478;BME280;12598;62.382;17.344;2023-01-27T00:10:15;102587.22;;;16.84;22.61
13478;BME280;12598;62.382;17.344;2023-01-27T00:11:17;102591.63;;;16.85;22.79
13478;BME280;12598;62.382;17.344;2023-01-27T00:12:38;102581.13;;;16.82;22.26
13478;BME280;12598;62.382;17.344;2023-01-27T00:13:58;102573.97;;;16.83;22.23
13478;BME280;12598;62.382;17.344;2023-01-27T00:15:00;102588.75;;;16.88;22.36
13478;BME280;12598;62.382;17.344;2023-01-27T00:16:02;102587.41;;;16.81;22.53
13478;BME280;12598;62.382;17.344;2023-01-27T00:17:04;102587.59;;;16.78;22.46
13478;BME280;12598;62.382;17.344;2023-01-27T00:18:06;102589.31;;;16.79;22.57
13478;BME280;12598;62.382;17.344;2023-01-27T00:19:08;102589.13;;;16.82;22.68
13478;BME280;12598;62.382;17.344;2023-01-27T00:20:10;102563.19;;;16.70;22.40
13478;BME280;12598;62.382;17.344;2023-01-27T00:21:13;102580.34;;;16.80;22.50
13478;BME280;12598;62.382;17.344;2023-01-27T00:22:33;102571.59;;;16.78;22.54
13478;BME280;12598;62.382;17.344;2023-01-27T00:23:53;102579.97;;;16.86;22.58
13478;BME280;12598;62.382;17.344;2023-01-27T00:25:14;102580.84;;;16.87;22.50
13478;BME280;12598;62.382;17.344;2023-01-27T00:26:17;102582.00;;;16.83;22.52
13478;BME280;12598;62.382;17.344;2023-01-27T00:27:20;102587.41;;;16.81;22.26
13478;BME280;12598;62.382;17.344;2023-01-27T00:28:21;102584.00;;;16.79;22.61
13478;BME280;12598;62.382;17.344;2023-01-27T00:29:25;102582.28;;;16.78;22.40
13478;BME280;12598;62.382;17.344;2023-01-27T00:30:27;102588.56;;;16.77;22.21
13478;BME280;12598;62.382;17.344;2023-01-27T00:31:29;102586.84;;;16.76;22.42
13478;BME280;12598;62.382;17.344;2023-01-27T00:32:49;102586.72;;;16.78;22.48
13478;BME280;12598;62.382;17.344;2023-01-27T00:34:10;102588.28;;;16.82;22.25
13478;BME280;12598;62.382;17.344;2023-01-27T00:35:12;102591.03;;;16.80;22.18
13478;BME280;12598;62.382;17.344;2023-01-27T00:36:16;102587.59;;;16.78;22.38
13478;BME280;12598;62.382;17.344;2023-01-27T00:37:18;102587.81;;;16.75;22.32
13478;BME280;12598;62.382;17.344;2023-01-27T00:38:21;102601.16;;;16.75;22.28
13478;BME280;12598;62.382;17.344;2023-01-27T00:39:23;102597.72;;;16.73;23.09
13478;BME280;12598;62.382;17.344;2023-01-27T00:40:25;102608.41;;;16.73;22.55
13478;BME280;12598;62.382;17.344;2023-01-27T00:41:26;102590.19;;;16.66;22.75
13478;BME280;12598;62.382;17.344;2023-01-27T00:42:29;102597.81;;;16.72;22.59
13478;BME280;12598;62.382;17.344;2023-01-27T00:43:31;102592.09;;;16.64;22.54
13478;BME280;12598;62.382;17.344;2023-01-27T00:44:33;102612.13;;;16.71;22.16
13478;BME280;12598;62.382;17.344;2023-01-27T00:45:35;102609.44;;;16.71;22.58
13478;BME280;12598;62.382;17.344;2023-01-27T00:46:49;102612.88;;;16.73;22.43
13478;BME280;12598;62.382;17.344;2023-01-27T00:47:51;102614.72;;;16.72;22.42
13478;BME280;12598;62.382;17.344;2023-01-27T00:48:53;102602.69;;;16.65;22.31
13478;BME280;12598;62.382;17.344;2023-01-27T00:49:55;102613.94;;;16.70;22.38
13478;BME280;12598;62.382;17.344;2023-01-27T00:50:57;102608.69;;;16.69;22.40
13478;BME280;12598;62.382;17.344;2023-01-27T00:51:59;102608.69;;;16.69;22.45
13478;BME280;12598;62.382;17.344;2023-01-27T00:53:01;102616.69;;;16.69;22.48
13478;BME280;12598;62.382;17.344;2023-01-27T00:54:03;102620.31;;;16.68;22.55
13478;BME280;12598;62.382;17.344;2023-01-27T00:55:06;102616.81;;;16.67;22.59
13478;BME280;12598;62.382;17.344;2023-01-27T00:56:09;102616.81;;;16.67;21.96
13478;BME280;12598;62.382;17.344;2023-01-27T00:57:11;102607.47;;;16.60;22.49
13478;BME280;12598;62.382;17.344;2023-01-27T00:58:13;102612.31;;;16.68;22.59
13478;BME280;12598;62.382;17.344;2023-01-27T00:59:15;102599.53;;;16.59;22.58
13478;BME280;12598;62.382;17.344;2023-01-27T01:00:19;102615.94;;;16.67;22.76
13478;BME280;12598;62.382;17.344;2023-01-27T01:01:20;102612.31;;;16.68;22.64
13478;BME280;12598;62.382;17.344;2023-01-27T01:02:22;102616.81;;;16.67;22.41
13478;BME280;12598;62.382;17.344;2023-01-27T01:03:25;102604.41;;;16.66;22.52
13478;BME280;12598;62.382;17.344;2023-01-27T01:04:31;102606.97;;;16.68;22.23
13478;BME280;12598;62.382;17.344;2023-01-27T01:05:33;102601.72;;;16.66;22.44
13478;BME280;12598;62.382;17.344;2023-01-27T01:06:35;102599.44;;;16.60;22.28
13478;BME280;12598;62.382;17.344;2023-01-27T01:07:37;102595.63;;;16.64;22.52
13478;BME280;12598;62.382;17.344;2023-01-27T01:08:42;102594.69;;;16.65;21.99
13478;BME280;12598;62.382;17.344;2023-01-27T01:09:44;102585.78;;;16.65;22.56
13478;BME280;12598;62.382;17.344;2023-01-27T01:10:45;102576.50;;;16.56;22.31
13478;BME280;12598;62.382;17.344;2023-01-27T01:11:47;102589.41;;;16.64;22.56
13478;BME280;12598;62.382;17.344;2023-01-27T01:12:49;102583.50;;;16.59;22.38
13478;BME280;12598;62.382;17.344;2023-01-27T01:13:52;102589.41;;;16.64;22.58
13478;BME280;12598;62.382;17.344;2023-01-27T01:14:56;102585.91;;;16.63;21.96
13478;BME280;12598;62.382;17.344;2023-01-27T01:16:13;102595.63;;;16.64;22.37
13478;BME280;12598;62.382;17.344;2023-01-27T01:17:16;102580.81;;;16.59;22.66
13478;BME280;12598;62.382;17.344;2023-01-27T01:18:18;102594.00;;;16.62;22.44
13478;BME280;12598;62.382;17.344;2023-01-27T01:19:20;102588.91;;;16.57;22.39
13478;BME280;12598;62.382;17.344;2023-01-27T01:20:21;102591.31;;;16.62;22.49
13478;BME280;12598;62.382;17.344;2023-01-27T01:21:25;102591.31;;;16.62;22.77
13478;BME280;12598;62.382;17.344;2023-01-27T01:22:26;102596.78;;;16.60;22.18
13478;BME280;12598;62.382;17.344;2023-01-27T01:23:28;102589.72;;;16.59;22.22
13478;BME280;12598;62.382;17.344;2023-01-27T01:24:30;102589.72;;;16.59;22.33
13478;BME280;12598;62.382;17.344;2023-01-27T01:25:33;102587.03;;;16.59;22.11
13478;BME280;12598;62.382;17.344;2023-01-27T01:26:36;102596.00;;;16.58;22.59
13478;BME280;12598;62.382;17.344;2023-01-27T01:27:39;102602.19;;;16.59;22.25
13478;BME280;12598;62.382;17.344;2023-01-27T01:28:45;102589.09;;;16.54;22.50
13478;BME280;12598;62.382;17.344;2023-01-27T01:29:47;102597.72;;;16.59;22.36
13478;BME280;12598;62.382;17.344;2023-01-27T01:30:49;102598.69;;;16.58;22.36
13478;BME280;12598;62.382;17.344;2023-01-27T01:31:51;102597.88;;;16.56;22.22
13478;BME280;12598;62.382;17.344;2023-01-27T01:32:53;102607.72;;;16.56;22.15
13478;BME280;12598;62.382;17.344;2023-01-27T01:33:55;102604.09;;;16.57;22.14
13478;BME280;12598;62.382;17.344;2023-01-27T01:34:57;102597.03;;;16.56;22.26
13478;BME280;12598;62.382;17.344;2023-01-27T01:36:04;102596.16;;;16.55;22.19
13478;BME280;12598;62.382;17.344;2023-01-27T01:37:06;102597.03;;;16.56;22.51
13478;BME280;12598;62.382;17.344;2023-01-27T01:38:08;102591.69;;;16.56;22.40
13478;BME280;12598;62.382;17.344;2023-01-27T01:39:10;102589.09;;;16.54;22.38
13478;BME280;12598;62.382;17.344;2023-01-27T01:40:12;102589.09;;;16.54;22.44
13478;BME280;12598;62.382;17.344;2023-01-27T01:41:18;102581.28;;;16.51;22.21
13478;BME280;12598;62.382;17.344;2023-01-27T01:42:21;102577.59;;;16.54;22.17
13478;BME280;12598;62.382;17.344;2023-01-27T01:43:23;102568.13;;;16.48;22.81
13478;BME280;12598;62.382;17.344;2023-01-27T01:44:29;102580.34;;;16.52;22.50
13478;BME280;12598;62.382;17.344;2023-01-27T01:46:37;102568.81;;;16.52;22.10
13478;BME280;12598;62.382;17.344;2023-01-27T01:47:39;102568.69;;;16.53;22.67
13478;BME280;12598;62.382;17.344;2023-01-27T01:48:50;102567.94;;;16.51;22.29
13478;BME280;12598;62.382;17.344;2023-01-27T01:49:54;102570.41;;;16.54;22.07
13478;BME280;12598;62.382;17.344;2023-01-27T01:50:59;102565.25;;;16.51;22.10
13478;BME280;12598;62.382;17.344;2023-01-27T01:52:07;102564.31;;;16.52;22.19
13478;BME280;12598;62.382;17.344;2023-01-27T01:53:10;102561.63;;;16.52;22.40
13478;BME280;12598;62.382;17.344;2023-01-27T01:54:18;102567.09;;;16.51;22.52
13478;BME280;12598;62.382;17.344;2023-01-27T01:55:22;102565.19;;;16.53;22.40
13478;BME280;12598;62.382;17.344;2023-01-27T01:56:29;102545.63;;;16.38;22.27
13478;BME280;12598;62.382;17.344;2023-01-27T01:57:34;102552.22;;;16.47;22.37
13478;BME280;12598;62.382;17.344;2023-01-27T01:58:38;102566.22;;;16.50;22.46
13478;BME280;12598;62.382;17.344;2023-01-27T01:59:50;102563.66;;;16.49;22.45
13478;BME280;12598;62.382;17.344;2023-01-27T02:00:54;102567.16;;;16.49;22.35
13478;BME280;12598;62.382;17.344;2023-01-27T02:02:01;102569.06;;;16.47;22.25
13478;BME280;12598;62.382;17.344;2023-01-27T02:03:05;102573.47;;;16.48;22.55
13478;BME280;12598;62.382;17.344;2023-01-27T02:04:12;102579.75;;;16.47;22.36
13478;BME280;12598;62.382;17.344;2023-01-27T02:05:19;102573.47;;;16.48;22.46
13478;BME280;12598;62.382;17.344;2023-01-27T02:06:22;102578.81;;;16.48;22.40
13478;BME280;12598;62.382;17.344;2023-01-27T02:07:31;102578.03;;;16.46;22.29
13478;BME280;12598;62.382;17.344;2023-01-27T02:08:38;102571.84;;;16.46;22.38
13478;BME280;12598;62.382;17.344;2023-01-27T02:09:40;102576.25;;;16.47;22.26
13478;BME280;12598;62.382;17.344;2023-01-27T02:10:43;102574.41;;;16.47;22.25
13478;BME280;12598;62.382;17.344;2023-01-27T02:11:45;102575.47;;;16.45;22.48
13478;BME280;12598;62.382;17.344;2023-01-27T02:12:47;102570.16;;;16.45;22.13
13478;BME280;12598;62.382;17.344;2023-01-27T02:13:49;102559.16;;;16.35;22.30
13478;BME280;12598;62.382;17.344;2023-01-27T02:14:51;102568.50;;;16.42;22.26
13478;BME280;12598;62.382;17.344;2023-01-27T02:15:55;102572.88;;;16.43;22.49
13478;BME280;12598;62.382;17.344;2023-01-27T02:16:57;102573.84;;;16.42;22.05
13478;BME280;12598;62.382;17.344;2023-01-27T02:18:00;102573.97;;;16.41;22.37
13478;BME280;12598;62.382;17.344;2023-01-27T02:19:03;102573.84;;;16.42;22.21
13478;BME280;12598;62.382;17.344;2023-01-27T02:20:27;102570.34;;;16.42;22.26
13478;BME280;12598;62.382;17.344;2023-01-27T02:21:31;102550.78;;;16.41;22.14
13478;BME280;12598;62.382;17.344;2023-01-27T02:24:11;102556.78;;;16.45;22.20
13478;BME280;12598;62.382;17.344;2023-01-27T02:25:25;102569.06;;;16.47;22.18
13478;BME280;12598;62.382;17.344;2023-01-27T02:26:33;102565.44;;;16.48;22.32
13478;BME280;12598;62.382;17.344;2023-01-27T02:27:36;102562.97;;;16.45;22.20
13478;BME280;12598;62.382;17.344;2023-01-27T02:28:38;102554.38;;;16.40;22.37
13478;BME280;12598;62.382;17.344;2023-01-27T02:29:40;102563.16;;;16.42;22.37
13478;BME280;12598;62.382;17.344;2023-01-27T02:30:42;102558.00;;;16.39;22.27
13478;BME280;12598;62.382;17.344;2023-01-27T02:31:44;102564.31;;;16.38;22.12
13478;BME280;12598;62.382;17.344;2023-01-27T02:32:46;102551.91;;;16.37;22.32
13478;BME280;12598;62.382;17.344;2023-01-27T02:33:50;102557.25;;;16.37;22.39
13478;BME280;12598;62.382;17.344;2023-01-27T02:34:55;102558.19;;;16.36;22.20
13478;BME280;12598;62.382;17.344;2023-01-27T02:36:01;102554.94;;;16.31;22.50
13478;BME280;12598;62.382;17.344;2023-01-27T02:37:07;102542.53;;;16.30;22.36
13478;BME280;12598;62.382;17.344;2023-01-27T02:38:12;102557.25;;;16.37;22.24
13478;BME280;12598;62.382;17.344;2023-01-27T02:39:18;102552.88;;;16.36;22.36
13478;BME280;12598;62.382;17.344;2023-01-27T02:40:21;102550.38;;;16.33;22.72
13478;BME280;12598;62.382;17.344;2023-01-27T02:41:25;102554.56;;;16.37;22.30
13478;BME280;12598;62.382;17.344;2023-01-27T02:42:28;102559.91;;;16.37;22.28
13478;BME280;12598;62.382;17.344;2023-01-27T02:43:30;102562.66;;;16.36;22.31
13478;BME280;12598;62.382;17.344;2023-01-27T02:44:32;102561.06;;;16.33;22.21
13478;BME280;12598;62.382;17.344;2023-01-27T02:45:36;102557.44;;;16.34;22.42
13478;BME280;12598;62.382;17.344;2023-01-27T02:46:38;102552.16;;;16.33;22.44
13478;BME280;12598;62.382;17.344;2023-01-27T02:47:40;102553.91;;;16.34;22.19
13478;BME280;12598;62.382;17.344;2023-01-27T02:48:43;102555.72;;;16.33;22.35
13478;BME280;12598;62.382;17.344;2023-01-27T02:49:45;102552.16;;;16.33;22.41
13478;BME280;12598;62.382;17.344;2023-01-27T02:50:47;102548.63;;;16.32;22.62
13478;BME280;12598;62.382;17.344;2023-01-27T02:51:49;102550.38;;;16.33;22.56
13478;BME280;12598;62.382;17.344;2023-01-27T02:52:52;102551.31;;;16.32;22.31
13478;BME280;12598;62.382;17.344;2023-01-27T02:53:55;102545.97;;;16.32;22.19
13478;BME280;12598;62.382;17.344;2023-01-27T02:54:57;102540.22;;;16.25;22.23
13478;BME280;12598;62.382;17.344;2023-01-27T02:55:59;102547.00;;;16.30;22.28
13478;BME280;12598;62.382;17.344;2023-01-27T02:57:01;102547.88;;;16.30;22.21
13478;BME280;12598;62.382;17.344;2023-01-27T02:58:06;102548.72;;;16.31;22.29
13478;BME280;12598;62.382;17.344;2023-01-27T02:59:15;102545.97;;;16.32;22.10
13478;BME280;12598;62.382;17.344;2023-01-27T03:00:17;102547.88;;;16.30;22.20
13478;BME280;12598;62.382;17.344;2023-01-27T03:01:19;102550.53;;;16.30;22.11
13478;BME280;12598;62.382;17.344;2023-01-27T03:02:21;102552.34;;;16.30;22.09
13478;BME280;12598;62.382;17.344;2023-01-27T03:03:31;102555.75;;;16.32;22.46
13478;BME280;12598;62.382;17.344;2023-01-27T03:04:33;102552.34;;;16.30;22.13
13478;BME280;12598;62.382;17.344;2023-01-27T03:05:39;102559.38;;;16.31;22.01
13478;BME280;12598;62.382;17.344;2023-01-27T03:06:41;102551.50;;;16.29;22.31
13478;BME280;12598;62.382;17.344;2023-01-27T03:07:43;102547.09;;;16.28;22.07
13478;BME280;12598;62.382;17.344;2023-01-27T03:08:47;102549.78;;;16.28;22.16
13478;BME280;12598;62.382;17.344;2023-01-27T03:09:49;102546.22;;;16.28;22.15
13478;BME280;12598;62.382;17.344;2023-01-27T03:10:52;102549.00;;;16.27;22.30
13478;BME280;12598;62.382;17.344;2023-01-27T03:11:55;102546.34;;;16.27;22.11
13478;BME280;12598;62.382;17.344;2023-01-27T03:13:20;102544.31;;;16.30;22.11
13478;BME280;12598;62.382;17.344;2023-01-27T03:14:25;102547.00;;;16.30;22.14
13478;BME280;12598;62.382;17.344;2023-01-27T03:15:46;102539.19;;;16.27;22.03
13478;BME280;12598;62.382;17.344;2023-01-27T03:17:07;102540.06;;;16.27;22.14
13478;BME280;12598;62.382;17.344;2023-01-27T03:18:28;102554.81;;;16.33;21.92
13478;BME280;12598;62.382;17.344;2023-01-27T03:19:30;102558.53;;;16.30;22.10
13478;BME280;12598;62.382;17.344;2023-01-27T03:20:31;102554.34;;;16.27;22.07
13478;BME280;12598;62.382;17.344;2023-01-27T03:21:33;102552.72;;;16.24;22.18
13478;BME280;12598;62.382;17.344;2023-01-27T03:22:35;102557.19;;;16.24;22.05
13478;BME280;12598;62.382;17.344;2023-01-27T03:23:38;102555.38;;;16.24;22.05
13478;BME280;12598;62.382;17.344;2023-01-27T03:24:40;102552.81;;;16.23;22.19
13478;BME280;12598;62.382;17.344;2023-01-27T03:25:46;102551.09;;;16.22;22.35
13478;BME280;12598;62.382;17.344;2023-01-27T03:26:49;102554.53;;;16.24;22.23
13478;BME280;12598;62.382;17.344;2023-01-27T03:27:53;102551.88;;;16.24;22.09
13478;BME280;12598;62.382;17.344;2023-01-27T03:29:00;102558.91;;;16.25;21.92
13478;BME280;12598;62.382;17.344;2023-01-27T03:30:20;102551.69;;;16.27;21.99
13478;BME280;12598;62.382;17.344;2023-01-27T03:31:48;102543.38;;;16.31;22.25
13478;BME280;12598;62.382;17.344;2023-01-27T03:32:51;102542.72;;;16.27;22.47
13478;BME280;12598;62.382;17.344;2023-01-27T03:34:13;102514.00;;;16.17;22.07
13478;BME280;12598;62.382;17.344;2023-01-27T03:35:19;102536.50;;;16.27;22.05
13478;BME280;12598;62.382;17.344;2023-01-27T03:36:23;102538.53;;;16.24;22.10
13478;BME280;12598;62.382;17.344;2023-01-27T03:37:44;102533.00;;;16.27;21.89
13478;BME280;12598;62.382;17.344;2023-01-27T03:39:04;102536.44;;;16.28;21.90
13478;BME280;12598;62.382;17.344;2023-01-27T03:40:26;102540.06;;;16.27;22.08
13478;BME280;12598;62.382;17.344;2023-01-27T03:41:46;102537.38;;;16.27;22.08
13478;BME280;12598;62.382;17.344;2023-01-27T03:43:10;102540.81;;;16.29;21.69
13478;BME280;12598;62.382;17.344;2023-01-27T03:44:30;102526.69;;;16.27;21.95
13478;BME280;12598;62.382;17.344;2023-01-27T03:45:51;102517.44;;;16.19;21.92
13478;BME280;12598;62.382;17.344;2023-01-27T03:47:12;102518.13;;;16.23;22.02
13478;BME280;12598;62.382;17.344;2023-01-27T03:48:13;102524.41;;;16.22;22.08
13478;BME280;12598;62.382;17.344;2023-01-27T03:49:18;102528.97;;;16.20;22.31
13478;BME280;12598;62.382;17.344;2023-01-27T03:50:20;102513.16;;;16.17;22.33
13478;BME280;12598;62.382;17.344;2023-01-27T03:51:31;102511.78;;;16.10;22.27
13478;BME280;12598;62.382;17.344;2023-01-27T03:52:33;102520.38;;;16.15;22.01
13478;BME280;12598;62.382;17.344;2023-01-27T03:53:36;102508.16;;;16.11;22.36
13478;BME280;12598;62.382;17.344;2023-01-27T03:54:37;102516.94;;;16.13;22.35
13478;BME280;12598;62.382;17.344;2023-01-27T03:55:40;102512.38;;;16.15;21.98
13478;BME280;12598;62.382;17.344;2023-01-27T03:56:42;102518.75;;;16.12;22.16
13478;BME280;12598;62.382;17.344;2023-01-27T03:57:44;102515.31;;;16.10;22.16
13478;BME280;12598;62.382;17.344;2023-01-27T03:58:48;102518.84;;;16.11;22.11
13478;BME280;12598;62.382;17.344;2023-01-27T03:59:51;102527.59;;;16.13;22.01
13478;BME280;12598;62.382;17.344;2023-01-27T04:01:12;102514.06;;;16.02;22.20
13478;BME280;12598;62.382;17.344;2023-01-27T04:02:14;102538.03;;;16.17;21.95
13478;BME280;12598;62.382;17.344;2023-01-27T04:03:35;102528.97;;;16.20;21.81
13478;BME280;12598;62.382;17.344;2023-01-27T04:04:55;102513.31;;;16.14;21.98
13478;BME280;12598;62.382;17.344;2023-01-27T04:06:19;102520.03;;;16.21;21.74
13478;BME280;12598;62.382;17.344;2023-01-27T04:07:39;102519.25;;;16.19;21.78
13478;BME280;12598;62.382;17.344;2023-01-27T04:08:42;102514.94;;;16.16;21.82
13478;BME280;12598;62.382;17.344;2023-01-27T04:09:44;102519.41;;;16.16;22.02
13478;BME280;12598;62.382;17.344;2023-01-27T04:10:45;102524.00;;;16.14;22.03
13478;BME280;12598;62.382;17.344;2023-01-27T04:12:08;102522.09;;;16.16;21.79
13478;BME280;12598;62.382;17.344;2023-01-27T04:13:10;102525.88;;;16.12;21.98
13478;BME280;12598;62.382;17.344;2023-01-27T04:14:12;102524.94;;;16.13;21.78
13478;BME280;12598;62.382;17.344;2023-01-27T04:15:14;102506.16;;;16.00;22.27
13478;BME280;12598;62.382;17.344;2023-01-27T04:16:19;102529.50;;;16.11;22.09
13478;BME280;12598;62.382;17.344;2023-01-27T04:17:29;102523.22;;;16.12;22.29
13478;BME280;12598;62.382;17.344;2023-01-27T04:18:39;102516.94;;;16.13;21.87
13478;BME280;12598;62.382;17.344;2023-01-27T04:19:41;102506.44;;;16.10;22.00
13478;BME280;12598;62.382;17.344;2023-01-27T04:20:43;102518.84;;;16.11;22.16
13478;BME280;12598;62.382;17.344;2023-01-27T04:21:45;102519.03;;;16.08;22.17
13478;BME280;12598;62.382;17.344;2023-01-27T04:22:47;102513.69;;;16.08;21.91
13478;BME280;12598;62.382;17.344;2023-01-27T04:23:50;102513.69;;;16.08;22.27
13478;BME280;12598;62.382;17.344;2023-01-27T04:24:52;102513.81;;;16.06;22.14
13478;BME280;12598;62.382;17.344;2023-01-27T04:25:54;102512.84;;;16.07;22.06
13478;BME280;12598;62.382;17.344;2023-01-27T04:27:26;102508.75;;;16.16;21.95
13478;BME280;12598;62.382;17.344;2023-01-27T04:28:28;102504.34;;;16.15;21.94
13478;BME280;12598;62.382;17.344;2023-01-27T04:29:44;102504.34;;;16.15;21.96
13478;BME280;12598;62.382;17.344;2023-01-27T04:30:46;102514.38;;;16.11;22.01
13478;BME280;12598;62.382;17.344;2023-01-27T04:31:49;102516.28;;;16.09;22.13
13478;BME280;12598;62.382;17.344;2023-01-27T04:32:52;102512.75;;;16.09;21.95
13478;BME280;12598;62.382;17.344;2023-01-27T04:33:53;102519.03;;;16.08;22.14
13478;BME280;12598;62.382;17.344;2023-01-27T04:34:55;102519.97;;;16.07;22.05
13478;BME280;12598;62.382;17.344;2023-01-27T04:35:57;102516.47;;;16.06;22.04
13478;BME280;12598;62.382;17.344;2023-01-27T04:36:59;102514.81;;;16.04;22.25
13478;BME280;12598;62.382;17.344;2023-01-27T04:38:01;102515.59;;;16.06;22.06
13478;BME280;12598;62.382;17.344;2023-01-27T04:39:03;102493.09;;;15.96;22.09
13478;BME280;12598;62.382;17.344;2023-01-27T04:40:07;102522.75;;;16.05;21.94
13478;BME280;12598;62.382;17.344;2023-01-27T04:41:09;102523.59;;;16.06;21.99
13478;BME280;12598;62.382;17.344;2023-01-27T04:42:11;102513.88;;;16.05;22.34
13478;BME280;12598;62.382;17.344;2023-01-27T04:43:13;102512.34;;;16.01;22.08
13478;BME280;12598;62.382;17.344;2023-01-27T04:44:15;102520.09;;;16.05;22.15
13478;BME280;12598;62.382;17.344;2023-01-27T04:45:20;102515.59;;;16.06;21.87
13478;BME280;12598;62.382;17.344;2023-01-27T04:46:22;102514.81;;;16.04;22.33
13478;BME280;12598;62.382;17.344;2023-01-27T04:47:24;102512.16;;;16.04;22.01
13478;BME280;12598;62.382;17.344;2023-01-27T04:48:26;102512.16;;;16.04;22.06
13478;BME280;12598;62.382;17.344;2023-01-27T04:49:28;102514.81;;;16.04;22.18
13478;BME280;12598;62.382;17.344;2023-01-27T04:50:29;102513.97;;;16.03;22.36
13478;BME280;12598;62.382;17.344;2023-01-27T04:51:32;102514.06;;;16.02;21.99
13478;BME280;12598;62.382;17.344;2023-01-27T04:52:34;102517.50;;;16.04;22.29
13478;BME280;12598;62.382;17.344;2023-01-27T04:53:36;102503.75;;;15.96;21.95
13478;BME280;12598;62.382;17.344;2023-01-27T04:54:38;102504.25;;;16.02;21.97
13478;BME280;12598;62.382;17.344;2023-01-27T04:55:43;102516.72;;;16.02;22.00
13478;BME280;12598;62.382;17.344;2023-01-27T04:56:58;102504.16;;;16.04;22.07
13478;BME280;12598;62.382;17.344;2023-01-27T04:58:00;102505.78;;;16.06;21.88
13478;BME280;12598;62.382;17.344;2023-01-27T04:59:05;102501.47;;;16.04;22.00
13478;BME280;12598;62.382;17.344;2023-01-27T05:00:08;102496.16;;;16.04;22.23
13478;BME280;12598;62.382;17.344;2023-01-27T05:01:11;102505.09;;;16.03;22.03
13478;BME280;12598;62.382;17.344;2023-01-27T05:02:12;102501.59;;;16.02;22.09
13478;BME280;12598;62.382;17.344;2023-01-27T05:03:14;102501.59;;;16.02;22.20
13478;BME280;12598;62.382;17.344;2023-01-27T05:04:16;102501.69;;;16.01;22.17
13478;BME280;12598;62.382;17.344;2023-01-27T05:05:18;102493.66;;;16.01;22.19
13478;BME280;12598;62.382;17.344;2023-01-27T05:06:20;102488.34;;;16.01;21.87
13478;BME280;12598;62.382;17.344;2023-01-27T05:07:23;102485.78;;;15.99;22.41
13478;BME280;12598;62.382;17.344;2023-01-27T05:08:25;102482.22;;;15.99;21.99
13478;BME280;12598;62.382;17.344;2023-01-27T05:09:27;102471.75;;;15.96;22.31
13478;BME280;12598;62.382;17.344;2023-01-27T05:10:28;102467.75;;;15.89;22.14
13478;BME280;12598;62.382;17.344;2023-01-27T05:11:30;102482.41;;;15.96;22.18
13478;BME280;12598;62.382;17.344;2023-01-27T05:12:32;102482.22;;;15.99;22.34
13478;BME280;12598;62.382;17.344;2023-01-27T05:13:34;102487.56;;;15.99;22.19
13478;BME280;12598;62.382;17.344;2023-01-27T05:14:36;102485.84;;;15.98;21.86
13478;BME280;12598;62.382;17.344;2023-01-27T05:15:38;102491.19;;;15.98;22.21
13478;BME280;12598;62.382;17.344;2023-01-27T05:16:40;102485.84;;;15.98;22.17
13478;BME280;12598;62.382;17.344;2023-01-27T05:17:42;102480.53;;;15.98;22.34
13478;BME280;12598;62.382;17.344;2023-01-27T05:18:45;102484.13;;;15.97;21.93
13478;BME280;12598;62.382;17.344;2023-01-27T05:19:48;102479.69;;;15.97;22.25
13478;BME280;12598;62.382;17.344;2023-01-27T05:20:50;102484.31;;;15.94;22.14
13478;BME280;12598;62.382;17.344;2023-01-27T05:21:52;102487.56;;;15.99;22.03
13478;BME280;12598;62.382;17.344;2023-01-27T05:22:54;102485.84;;;15.98;22.09
13478;BME280;12598;62.382;17.344;2023-01-27T05:24:16;102489.09;;;16.03;21.75
13478;BME280;12598;62.382;17.344;2023-01-27T05:25:18;102491.00;;;16.01;21.90
13478;BME280;12598;62.382;17.344;2023-01-27T05:26:22;102485.00;;;15.97;22.01
13478;BME280;12598;62.382;17.344;2023-01-27T05:27:24;102484.91;;;15.99;21.91
13478;BME280;12598;62.382;17.344;2023-01-27T05:28:26;102485.00;;;15.97;22.06
13478;BME280;12598;62.382;17.344;2023-01-27T05:29:30;102485.84;;;15.98;21.94
13478;BME280;12598;62.382;17.344;2023-01-27T05:30:32;102487.84;;;15.94;21.87
13478;BME280;12598;62.382;17.344;2023-01-27T05:31:34;102489.66;;;15.94;21.96
13478;BME280;12598;62.382;17.344;2023-01-27T05:32:36;102482.41;;;15.96;22.20
13478;BME280;12598;62.382;17.344;2023-01-27T05:33:38;102490.41;;;15.96;22.14
13478;BME280;12598;62.382;17.344;2023-01-27T05:34:40;102488.63;;;15.96;22.23
13478;BME280;12598;62.382;17.344;2023-01-27T05:35:42;102500.16;;;15.97;21.99
13478;BME280;12598;62.382;17.344;2023-01-27T05:36:44;102493.09;;;15.96;22.37
13478;BME280;12598;62.382;17.344;2023-01-27T05:37:46;102498.44;;;15.96;22.17
13478;BME280;12598;62.382;17.344;2023-01-27T05:38:48;102498.44;;;15.96;22.29